createdAt,value
2023-02-16T00:00:04.548Z,-2.35
2023-02-16T00:00:14.544Z,-2.35
2023-02-16T00:00:24.545Z,-2.35
2023-02-16T00:00:34.549Z,-2.35
2023-02-16T00:00:44.562Z,-2.34
2023-02-16T00:00:54.550Z,-2.33
2023-02-16T00:01:05.106Z,-2.31
2023-02-16T00:01:14.552Z,-2.31
2023-02-16T00:01:24.570Z,-2.31
2023-02-16T00:01:34.559Z,-2.30
2023-02-16T00:01:44.560Z,-2.28
2023-02-16T00:01:54.559Z,-2.30
2023-02-16T00:02:04.637Z,-2.29
2023-02-16T00:02:14.595Z,-2.28
2023-02-16T00:02:24.577Z,-2.26
2023-02-16T00:02:34.628Z,-2.27
2023-02-16T00:02:44.660Z,-2.26
2023-02-16T00:02:54.561Z,-2.25
2023-02-16T00:03:04.594Z,-2.25
2023-02-16T00:03:14.573Z,-2.25
2023-02-16T00:03:24.610Z,-2.26
2023-02-16T00:03:34.607Z,-2.27
2023-02-16T00:03:44.643Z,-2.26
2023-02-16T00:03:54.620Z,-2.27
2023-02-16T00:04:04.566Z,-2.28
2023-02-16T00:04:14.567Z,-2.26
2023-02-16T00:04:24.593Z,-2.29
2023-02-16T00:04:34.582Z,-2.28
2023-02-16T00:04:44.568Z,-2.29
2023-02-16T00:04:54.571Z,-2.29
2023-02-16T00:05:04.580Z,-2.29
2023-02-16T00:05:14.568Z,-2.29
2023-02-16T00:05:24.571Z,-2.29
2023-02-16T00:05:34.582Z,-2.27
2023-02-16T00:05:44.577Z,-2.27
2023-02-16T00:05:54.574Z,-2.28
2023-02-16T00:06:04.582Z,-2.26
2023-02-16T00:06:14.594Z,-2.28
2023-02-16T00:06:24.578Z,-2.28
2023-02-16T00:06:34.578Z,-2.26
2023-02-16T00:06:44.579Z,-2.27
2023-02-16T00:06:54.576Z,-2.27
2023-02-16T00:07:04.596Z,-2.26
2023-02-16T00:07:14.580Z,-2.26
2023-02-16T00:07:24.593Z,-2.26
2023-02-16T00:07:34.589Z,-2.26
2023-02-16T00:07:44.582Z,-2.26
2023-02-16T00:07:54.596Z,-2.25
2023-02-16T00:08:04.580Z,-2.27
2023-02-16T00:08:14.582Z,-2.26
2023-02-16T00:08:24.588Z,-2.26
2023-02-16T00:08:34.592Z,-2.26
2023-02-16T00:08:44.567Z,-2.26
2023-02-16T00:08:54.587Z,-2.25
2023-02-16T00:09:04.589Z,-2.27
2023-02-16T00:09:14.586Z,-2.25
2023-02-16T00:09:24.606Z,-2.24
2023-02-16T00:09:35.123Z,-2.25
2023-02-16T00:09:44.595Z,-2.26
2023-02-16T00:09:54.588Z,-2.27
2023-02-16T00:10:04.603Z,-2.26
2023-02-16T00:10:14.587Z,-2.27
2023-02-16T00:10:24.578Z,-2.26
2023-02-16T00:10:34.593Z,-2.27
2023-02-16T00:10:44.603Z,-2.27
2023-02-16T00:10:54.597Z,-2.26
2023-02-16T00:11:04.976Z,-2.27
2023-02-16T00:11:14.601Z,-2.28
2023-02-16T00:11:24.603Z,-2.27
2023-02-16T00:11:34.596Z,-2.26
2023-02-16T00:11:44.599Z,-2.27
2023-02-16T00:11:54.616Z,-2.29
2023-02-16T00:12:04.598Z,-2.27
2023-02-16T00:12:14.604Z,-2.28
2023-02-16T00:12:24.610Z,-2.27
2023-02-16T00:12:34.603Z,-2.28
2023-02-16T00:12:44.608Z,-2.27
2023-02-16T00:12:54.600Z,-2.28
2023-02-16T00:13:04.608Z,-2.27
2023-02-16T00:13:14.608Z,-2.26
2023-02-16T00:13:24.619Z,-2.27
2023-02-16T00:13:34.604Z,-2.27
2023-02-16T00:13:44.791Z,-2.25
2023-02-16T00:13:54.609Z,-2.24
2023-02-16T00:14:04.612Z,-2.22
2023-02-16T00:14:14.616Z,-2.24
2023-02-16T00:14:24.613Z,-2.24
2023-02-16T00:14:34.623Z,-2.23
2023-02-16T00:14:44.630Z,-2.23
2023-02-16T00:14:54.623Z,-2.23
2023-02-16T00:15:04.617Z,-2.22
2023-02-16T00:15:14.617Z,-2.21
2023-02-16T00:15:24.626Z,-2.20
2023-02-16T00:15:34.687Z,-2.21
2023-02-16T00:15:44.652Z,-2.19
2023-02-16T00:15:54.634Z,-2.19
2023-02-16T00:16:04.715Z,-2.17
2023-02-16T00:16:14.722Z,-2.18
2023-02-16T00:16:24.711Z,-2.17
2023-02-16T00:16:34.625Z,-2.18
2023-02-16T00:16:44.638Z,-2.18
2023-02-16T00:16:54.643Z,-2.18
2023-02-16T00:17:04.624Z,-2.19
2023-02-16T00:17:14.629Z,-2.17
2023-02-16T00:17:24.630Z,-2.17
2023-02-16T00:17:34.625Z,-2.17
2023-02-16T00:17:44.642Z,-2.16
2023-02-16T00:17:54.639Z,-2.15
2023-02-16T00:18:04.631Z,-2.14
2023-02-16T00:18:14.636Z,-2.13
2023-02-16T00:18:24.642Z,-2.13
2023-02-16T00:18:34.639Z,-2.12
2023-02-16T00:18:44.647Z,-2.11
2023-02-16T00:18:54.633Z,-2.13
2023-02-16T00:19:04.641Z,-2.14
2023-02-16T00:19:14.646Z,-2.15
2023-02-16T00:19:24.637Z,-2.16
2023-02-16T00:19:34.642Z,-2.17
2023-02-16T00:19:44.663Z,-2.19
2023-02-16T00:19:54.657Z,-2.18
2023-02-16T00:20:04.668Z,-2.19
2023-02-16T00:20:14.652Z,-2.19
2023-02-16T00:20:24.649Z,-2.19
2023-02-16T00:20:34.649Z,-2.20
2023-02-16T00:20:44.648Z,-2.20
2023-02-16T00:20:54.651Z,-2.18
2023-02-16T00:21:04.975Z,-2.20
2023-02-16T00:21:14.668Z,-2.23
2023-02-16T00:21:24.649Z,-2.22
2023-02-16T00:21:34.649Z,-2.23
2023-02-16T00:21:44.657Z,-2.21
2023-02-16T00:21:55.674Z,-2.22
2023-02-16T00:22:04.651Z,-2.21
2023-02-16T00:22:14.656Z,-2.23
2023-02-16T00:22:24.651Z,-2.22
2023-02-16T00:22:34.655Z,-2.21
2023-02-16T00:22:44.661Z,-2.21
2023-02-16T00:22:54.661Z,-2.22
2023-02-16T00:23:04.661Z,-2.19
2023-02-16T00:23:14.663Z,-2.19
2023-02-16T00:23:24.664Z,-2.20
2023-02-16T00:23:34.674Z,-2.19
2023-02-16T00:23:44.682Z,-2.20
2023-02-16T00:23:54.661Z,-2.18
2023-02-16T00:24:04.666Z,-2.20
2023-02-16T00:24:14.661Z,-2.18
2023-02-16T00:24:24.663Z,-2.18
2023-02-16T00:24:34.671Z,-2.17
2023-02-16T00:24:44.669Z,-2.18
2023-02-16T00:24:54.666Z,-2.18
2023-02-16T00:25:04.670Z,-2.20
2023-02-16T00:25:14.678Z,-2.20
2023-02-16T00:25:24.679Z,-2.20
2023-02-16T00:25:34.669Z,-2.21
2023-02-16T00:25:44.672Z,-2.22
2023-02-16T00:25:54.672Z,-2.21
2023-02-16T00:26:04.676Z,-2.22
2023-02-16T00:26:14.678Z,-2.22
2023-02-16T00:26:24.678Z,-2.21
2023-02-16T00:26:34.677Z,-2.21
2023-02-16T00:26:44.683Z,-2.21
2023-02-16T00:26:54.691Z,-2.20
2023-02-16T00:27:04.679Z,-2.20
2023-02-16T00:27:14.689Z,-2.21
2023-02-16T00:27:24.680Z,-2.20
2023-02-16T00:27:34.697Z,-2.22
2023-02-16T00:27:44.689Z,-2.21
2023-02-16T00:27:54.690Z,-2.20
2023-02-16T00:28:04.689Z,-2.22
2023-02-16T00:28:14.688Z,-2.23
2023-02-16T00:28:24.688Z,-2.23
2023-02-16T00:28:34.684Z,-2.23
2023-02-16T00:28:44.717Z,-2.23
2023-02-16T00:28:54.701Z,-2.24
2023-02-16T00:29:04.688Z,-2.25
2023-02-16T00:29:14.686Z,-2.24
2023-02-16T00:29:24.702Z,-2.28
2023-02-16T00:29:34.704Z,-2.25
2023-02-16T00:29:45.968Z,-2.24
2023-02-16T00:29:54.731Z,-2.30
2023-02-16T00:30:04.705Z,-2.28
2023-02-16T00:30:14.758Z,-2.31
2023-02-16T00:30:24.762Z,-2.31
2023-02-16T00:30:34.740Z,-2.33
2023-02-16T00:30:44.692Z,-2.33
2023-02-16T00:30:54.799Z,-2.35
2023-02-16T00:31:05.102Z,-2.33
2023-02-16T00:31:14.868Z,-2.33
2023-02-16T00:31:24.813Z,-2.32
2023-02-16T00:31:34.782Z,-2.33
2023-02-16T00:31:44.827Z,-2.34
2023-02-16T00:31:54.934Z,-2.35
2023-02-16T00:32:04.906Z,-2.35
2023-02-16T00:32:14.860Z,-2.37
2023-02-16T00:32:24.769Z,-2.39
2023-02-16T00:32:34.709Z,-2.39
2023-02-16T00:32:44.711Z,-2.38
2023-02-16T00:32:54.705Z,-2.41
2023-02-16T00:33:04.721Z,-2.41
2023-02-16T00:33:14.712Z,-2.43
2023-02-16T00:33:24.709Z,-2.46
2023-02-16T00:33:34.712Z,-2.47
2023-02-16T00:33:44.720Z,-2.48
2023-02-16T00:33:54.719Z,-2.48
2023-02-16T00:34:04.710Z,-2.49
2023-02-16T00:34:14.718Z,-2.51
2023-02-16T00:34:24.708Z,-2.48
2023-02-16T00:34:34.725Z,-2.50
2023-02-16T00:34:44.755Z,-2.51
2023-02-16T00:34:54.717Z,-2.53
2023-02-16T00:35:04.764Z,-2.55
2023-02-16T00:35:14.729Z,-2.54
2023-02-16T00:35:24.713Z,-2.55
2023-02-16T00:35:34.721Z,-2.55
2023-02-16T00:35:44.722Z,-2.55
2023-02-16T00:35:54.717Z,-2.58
2023-02-16T00:36:04.724Z,-2.58
2023-02-16T00:36:14.719Z,-2.58
2023-02-16T00:36:24.718Z,-2.59
2023-02-16T00:36:34.735Z,-2.59
2023-02-16T00:36:44.722Z,-2.58
2023-02-16T00:36:54.735Z,-2.59
2023-02-16T00:37:04.722Z,-2.59
2023-02-16T00:37:14.722Z,-2.57
2023-02-16T00:37:24.738Z,-2.60
2023-02-16T00:37:34.733Z,-2.60
2023-02-16T00:37:44.742Z,-2.60
2023-02-16T00:37:54.731Z,-2.61
2023-02-16T00:38:04.728Z,-2.61
2023-02-16T00:38:14.749Z,-2.62
2023-02-16T00:38:24.730Z,-2.62
2023-02-16T00:38:34.733Z,-2.61
2023-02-16T00:38:44.737Z,-2.62
2023-02-16T00:38:54.741Z,-2.64
2023-02-16T00:39:04.737Z,-2.62
2023-02-16T00:39:14.730Z,-2.64
2023-02-16T00:39:24.734Z,-2.63
2023-02-16T00:39:34.738Z,-2.63
2023-02-16T00:39:44.750Z,-2.62
2023-02-16T00:39:54.739Z,-2.64
2023-02-16T00:40:04.742Z,-2.65
2023-02-16T00:40:14.752Z,-2.66
2023-02-16T00:40:24.744Z,-2.65
2023-02-16T00:40:34.774Z,-2.65
2023-02-16T00:40:44.744Z,-2.65
2023-02-16T00:40:54.744Z,-2.66
2023-02-16T00:41:05.045Z,-2.66
2023-02-16T00:41:14.752Z,-2.66
2023-02-16T00:41:24.749Z,-2.66
2023-02-16T00:41:34.768Z,-2.67
2023-02-16T00:41:44.747Z,-2.67
2023-02-16T00:41:54.745Z,-2.66
2023-02-16T00:42:04.775Z,-2.65
2023-02-16T00:42:14.752Z,-2.65
2023-02-16T00:42:24.757Z,-2.66
2023-02-16T00:42:34.753Z,-2.64
2023-02-16T00:42:44.763Z,-2.66
2023-02-16T00:42:57.235Z,-2.66
2023-02-16T00:43:04.767Z,-2.69
2023-02-16T00:43:14.756Z,-2.67
2023-02-16T00:43:24.772Z,-2.68
2023-02-16T00:43:34.808Z,-2.68
2023-02-16T00:43:44.764Z,-2.65
2023-02-16T00:43:54.780Z,-2.66
2023-02-16T00:44:04.761Z,-2.66
2023-02-16T00:44:14.767Z,-2.64
2023-02-16T00:44:24.765Z,-2.65
2023-02-16T00:44:34.770Z,-2.65
2023-02-16T00:44:44.788Z,-2.64
2023-02-16T00:44:54.767Z,-2.65
2023-02-16T00:45:04.774Z,-2.63
2023-02-16T00:45:14.774Z,-2.62
2023-02-16T00:45:24.799Z,-2.61
2023-02-16T00:45:34.772Z,-2.60
2023-02-16T00:45:44.771Z,-2.57
2023-02-16T00:45:54.811Z,-2.58
2023-02-16T00:46:04.867Z,-2.56
2023-02-16T00:46:14.835Z,-2.57
2023-02-16T00:46:24.791Z,-2.54
2023-02-16T00:46:34.838Z,-2.55
2023-02-16T00:46:44.782Z,-2.54
2023-02-16T00:46:54.783Z,-2.55
2023-02-16T00:47:04.789Z,-2.54
2023-02-16T00:47:14.788Z,-2.52
2023-02-16T00:47:24.783Z,-2.52
2023-02-16T00:47:34.783Z,-2.51
2023-02-16T00:47:44.784Z,-2.51
2023-02-16T00:47:54.785Z,-2.50
2023-02-16T00:48:04.807Z,-2.51
2023-02-16T00:48:14.797Z,-2.49
2023-02-16T00:48:24.791Z,-2.49
2023-02-16T00:48:34.795Z,-2.49
2023-02-16T00:48:45.349Z,-2.48
2023-02-16T00:48:54.790Z,-2.49
2023-02-16T00:49:04.800Z,-2.48
2023-02-16T00:49:14.799Z,-2.49
2023-02-16T00:49:24.793Z,-2.48
2023-02-16T00:49:34.793Z,-2.49
2023-02-16T00:49:44.802Z,-2.49
2023-02-16T00:49:54.809Z,-2.49
2023-02-16T00:50:04.794Z,-2.50
2023-02-16T00:50:14.797Z,-2.51
2023-02-16T00:50:24.807Z,-2.53
2023-02-16T00:50:34.801Z,-2.52
2023-02-16T00:50:44.802Z,-2.53
2023-02-16T00:50:54.801Z,-2.53
2023-02-16T00:51:13.920Z,-2.54
2023-02-16T00:51:25.608Z,-2.56
2023-02-16T00:51:26.658Z,-2.61
2023-02-16T00:51:34.804Z,-2.64
2023-02-16T00:51:44.804Z,-2.61
2023-02-16T00:51:54.802Z,-2.62
2023-02-16T00:52:04.814Z,-2.62
2023-02-16T00:52:14.803Z,-2.61
2023-02-16T00:52:24.803Z,-2.60
2023-02-16T00:52:34.813Z,-2.60
2023-02-16T00:52:44.814Z,-2.61
2023-02-16T00:52:54.810Z,-2.60
2023-02-16T00:53:04.812Z,-2.60
2023-02-16T00:53:14.851Z,-2.63
2023-02-16T00:53:24.810Z,-2.61
2023-02-16T00:53:34.828Z,-2.61
2023-02-16T00:53:44.815Z,-2.61
2023-02-16T00:53:54.814Z,-2.63
2023-02-16T00:54:04.820Z,-2.63
2023-02-16T00:54:14.854Z,-2.63
2023-02-16T00:54:24.831Z,-2.63
2023-02-16T00:54:34.828Z,-2.65
2023-02-16T00:54:44.825Z,-2.65
2023-02-16T00:54:54.837Z,-2.65
2023-02-16T00:55:04.837Z,-2.66
2023-02-16T00:55:14.820Z,-2.66
2023-02-16T00:55:24.830Z,-2.66
2023-02-16T00:55:34.848Z,-2.65
2023-02-16T00:55:44.826Z,-2.66
2023-02-16T00:55:54.838Z,-2.67
2023-02-16T00:56:04.834Z,-2.67
2023-02-16T00:56:14.823Z,-2.67
2023-02-16T00:56:24.828Z,-2.67
2023-02-16T00:56:34.837Z,-2.67
2023-02-16T00:56:44.829Z,-2.69
2023-02-16T00:56:54.829Z,-2.67
2023-02-16T00:57:04.841Z,-2.68
2023-02-16T00:57:14.840Z,-2.69
2023-02-16T00:57:24.830Z,-2.67
2023-02-16T00:57:34.829Z,-2.68
2023-02-16T00:57:44.833Z,-2.69
2023-02-16T00:57:54.835Z,-2.68
2023-02-16T00:58:04.840Z,-2.68
2023-02-16T00:58:14.838Z,-2.69
2023-02-16T00:58:24.842Z,-2.71
2023-02-16T00:58:34.836Z,-2.71
2023-02-16T00:58:44.835Z,-2.70
2023-02-16T00:58:54.841Z,-2.72
2023-02-16T00:59:04.842Z,-2.71
2023-02-16T00:59:14.842Z,-2.71
2023-02-16T00:59:24.827Z,-2.71
2023-02-16T00:59:34.851Z,-2.71
2023-02-16T00:59:44.845Z,-2.73
2023-02-16T00:59:54.865Z,-2.74
2023-02-16T01:00:04.850Z,-2.73
2023-02-16T01:00:14.849Z,-2.75
2023-02-16T01:00:24.848Z,-2.74
2023-02-16T01:00:34.855Z,-2.77
2023-02-16T01:00:44.845Z,-2.76
2023-02-16T01:00:54.853Z,-2.77
2023-02-16T01:01:05.126Z,-2.76
2023-02-16T01:01:14.903Z,-2.78
2023-02-16T01:01:24.949Z,-2.78
2023-02-16T01:01:34.889Z,-2.78
2023-02-16T01:01:44.892Z,-2.78
2023-02-16T01:01:54.971Z,-2.80
2023-02-16T01:02:04.854Z,-2.78
2023-02-16T01:02:14.855Z,-2.79
2023-02-16T01:02:24.859Z,-2.81
2023-02-16T01:02:34.857Z,-2.81
2023-02-16T01:02:44.859Z,-2.82
2023-02-16T01:02:54.854Z,-2.82
2023-02-16T01:03:04.860Z,-2.82
2023-02-16T01:03:14.853Z,-2.85
2023-02-16T01:03:24.860Z,-2.85
2023-02-16T01:03:34.861Z,-2.84
2023-02-16T01:03:44.866Z,-2.86
2023-02-16T01:03:54.863Z,-2.85
2023-02-16T01:04:04.889Z,-2.87
2023-02-16T01:04:14.923Z,-2.85
2023-02-16T01:04:24.890Z,-2.87
2023-02-16T01:04:34.894Z,-2.88
2023-02-16T01:04:44.906Z,-2.89
2023-02-16T01:04:55.021Z,-2.88
2023-02-16T01:05:04.873Z,-2.89
2023-02-16T01:05:14.872Z,-2.88
2023-02-16T01:05:24.872Z,-2.88
2023-02-16T01:05:34.872Z,-2.89
2023-02-16T01:05:44.882Z,-2.89
2023-02-16T01:05:54.869Z,-2.89
2023-02-16T01:06:04.868Z,-2.90
2023-02-16T01:06:14.866Z,-2.90
2023-02-16T01:06:24.878Z,-2.90
2023-02-16T01:06:34.874Z,-2.93
2023-02-16T01:06:44.870Z,-2.92
2023-02-16T01:06:54.877Z,-2.90
2023-02-16T01:07:04.871Z,-2.91
2023-02-16T01:07:14.885Z,-2.88
2023-02-16T01:07:24.884Z,-2.88
2023-02-16T01:07:34.881Z,-2.86
2023-02-16T01:07:44.887Z,-2.86
2023-02-16T01:07:54.884Z,-2.85
2023-02-16T01:08:04.873Z,-2.82
2023-02-16T01:08:14.888Z,-2.80
2023-02-16T01:08:24.882Z,-2.79
2023-02-16T01:08:34.891Z,-2.80
2023-02-16T01:08:44.888Z,-2.78
2023-02-16T01:08:54.905Z,-2.77
2023-02-16T01:09:04.899Z,-2.78
2023-02-16T01:09:14.888Z,-2.77
2023-02-16T01:09:24.889Z,-2.76
2023-02-16T01:09:34.889Z,-2.75
2023-02-16T01:09:44.890Z,-2.76
2023-02-16T01:09:54.941Z,-2.77
2023-02-16T01:10:04.887Z,-2.76
2023-02-16T01:10:14.888Z,-2.75
2023-02-16T01:10:24.892Z,-2.76
2023-02-16T01:10:34.894Z,-2.75
2023-02-16T01:10:44.895Z,-2.76
2023-02-16T01:10:54.900Z,-2.74
2023-02-16T01:11:05.283Z,-2.73
2023-02-16T01:11:14.893Z,-2.73
2023-02-16T01:11:24.906Z,-2.74
2023-02-16T01:11:34.891Z,-2.73
2023-02-16T01:11:44.895Z,-2.71
2023-02-16T01:11:54.892Z,-2.72
2023-02-16T01:12:04.909Z,-2.73
2023-02-16T01:12:14.899Z,-2.71
2023-02-16T01:12:24.894Z,-2.72
2023-02-16T01:12:34.899Z,-2.71
2023-02-16T01:12:44.895Z,-2.70
2023-02-16T01:12:54.898Z,-2.71
2023-02-16T01:13:04.904Z,-2.72
2023-02-16T01:13:14.930Z,-2.72
2023-02-16T01:13:24.901Z,-2.72
2023-02-16T01:13:34.922Z,-2.71
2023-02-16T01:13:44.910Z,-2.71
2023-02-16T01:13:54.942Z,-2.74
2023-02-16T01:14:04.906Z,-2.72
2023-02-16T01:14:14.917Z,-2.73
2023-02-16T01:14:24.919Z,-2.75
2023-02-16T01:14:34.906Z,-2.75
2023-02-16T01:14:44.894Z,-2.75
2023-02-16T01:14:54.928Z,-2.73
2023-02-16T01:15:04.943Z,-2.73
2023-02-16T01:15:14.914Z,-2.74
2023-02-16T01:15:24.919Z,-2.75
2023-02-16T01:15:34.942Z,-2.75
2023-02-16T01:15:44.939Z,-2.77
2023-02-16T01:15:54.955Z,-2.79
2023-02-16T01:16:05.027Z,-2.77
2023-02-16T01:16:14.964Z,-2.77
2023-02-16T01:16:24.932Z,-2.78
2023-02-16T01:16:34.916Z,-2.79
2023-02-16T01:16:44.918Z,-2.80
2023-02-16T01:16:54.929Z,-2.79
2023-02-16T01:17:04.916Z,-2.79
2023-02-16T01:17:14.923Z,-2.79
2023-02-16T01:17:24.964Z,-2.79
2023-02-16T01:17:34.925Z,-2.79
2023-02-16T01:17:44.927Z,-2.79
2023-02-16T01:17:54.921Z,-2.79
2023-02-16T01:18:04.935Z,-2.79
2023-02-16T01:18:14.928Z,-2.81
2023-02-16T01:18:24.929Z,-2.79
2023-02-16T01:18:34.920Z,-2.81
2023-02-16T01:18:44.931Z,-2.81
2023-02-16T01:18:54.932Z,-2.82
2023-02-16T01:19:04.936Z,-2.80
2023-02-16T01:19:14.930Z,-2.80
2023-02-16T01:19:24.926Z,-2.81
2023-02-16T01:19:34.916Z,-2.80
2023-02-16T01:19:44.934Z,-2.80
2023-02-16T01:19:54.976Z,-2.80
2023-02-16T01:20:04.960Z,-2.81
2023-02-16T01:20:14.940Z,-2.82
2023-02-16T01:20:24.945Z,-2.82
2023-02-16T01:20:34.933Z,-2.81
2023-02-16T01:20:44.943Z,-2.82
2023-02-16T01:20:54.937Z,-2.81
2023-02-16T01:21:05.238Z,-2.84
2023-02-16T01:21:14.940Z,-2.86
2023-02-16T01:21:24.944Z,-2.86
2023-02-16T01:21:34.941Z,-2.88
2023-02-16T01:21:44.951Z,-2.89
2023-02-16T01:21:54.941Z,-2.88
2023-02-16T01:22:04.939Z,-2.90
2023-02-16T01:22:14.938Z,-2.89
2023-02-16T01:22:24.943Z,-2.91
2023-02-16T01:22:34.940Z,-2.91
2023-02-16T01:22:44.940Z,-2.91
2023-02-16T01:22:54.957Z,-2.93
2023-02-16T01:23:04.951Z,-2.94
2023-02-16T01:23:14.944Z,-2.97
2023-02-16T01:23:24.943Z,-2.95
2023-02-16T01:23:34.958Z,-2.96
2023-02-16T01:23:44.951Z,-2.96
2023-02-16T01:23:54.954Z,-2.97
2023-02-16T01:24:04.950Z,-2.97
2023-02-16T01:24:14.955Z,-2.98
2023-02-16T01:24:24.958Z,-2.98
2023-02-16T01:24:34.950Z,-2.99
2023-02-16T01:24:44.985Z,-2.99
2023-02-16T01:24:54.954Z,-3.00
2023-02-16T01:25:04.951Z,-2.99
2023-02-16T01:25:14.958Z,-3.02
2023-02-16T01:25:24.953Z,-3.05
2023-02-16T01:25:34.959Z,-3.06
2023-02-16T01:25:44.954Z,-3.07
2023-02-16T01:25:54.970Z,-3.09
2023-02-16T01:26:04.957Z,-3.10
2023-02-16T01:26:14.960Z,-3.13
2023-02-16T01:26:24.960Z,-3.16
2023-02-16T01:26:34.959Z,-3.19
2023-02-16T01:26:44.975Z,-3.20
2023-02-16T01:26:54.972Z,-3.19
2023-02-16T01:27:04.964Z,-3.21
2023-02-16T01:27:14.980Z,-3.21
2023-02-16T01:27:24.967Z,-3.21
2023-02-16T01:27:34.966Z,-3.19
2023-02-16T01:27:44.974Z,-3.20
2023-02-16T01:27:54.971Z,-3.21
2023-02-16T01:28:04.966Z,-3.20
2023-02-16T01:28:14.977Z,-3.19
2023-02-16T01:28:24.992Z,-3.18
2023-02-16T01:28:34.976Z,-3.19
2023-02-16T01:28:44.974Z,-3.17
2023-02-16T01:28:54.976Z,-3.15
2023-02-16T01:29:04.978Z,-3.13
2023-02-16T01:29:14.982Z,-3.13
2023-02-16T01:29:24.980Z,-3.11
2023-02-16T01:29:34.980Z,-3.09
2023-02-16T01:29:45.001Z,-3.09
2023-02-16T01:29:55.014Z,-3.07
2023-02-16T01:30:05.647Z,-3.05
2023-02-16T01:30:15.064Z,-3.05
2023-02-16T01:30:25.053Z,-3.06
2023-02-16T01:30:35.018Z,-3.05
2023-02-16T01:30:44.988Z,-3.05
2023-02-16T01:30:55.131Z,-3.05
2023-02-16T01:31:05.432Z,-3.06
2023-02-16T01:31:15.100Z,-3.07
2023-02-16T01:31:25.063Z,-3.08
2023-02-16T01:31:35.121Z,-3.09
2023-02-16T01:31:45.087Z,-3.12
2023-02-16T01:31:55.174Z,-3.14
2023-02-16T01:32:05.095Z,-3.16
2023-02-16T01:32:15.177Z,-3.17
2023-02-16T01:32:25.220Z,-3.18
2023-02-16T01:32:34.995Z,-3.20
2023-02-16T01:32:44.994Z,-3.20
2023-02-16T01:32:54.997Z,-3.20
2023-02-16T01:33:05.013Z,-3.19
2023-02-16T01:33:14.999Z,-3.19
2023-02-16T01:33:24.995Z,-3.20
2023-02-16T01:33:35.000Z,-3.19
2023-02-16T01:33:45.002Z,-3.20
2023-02-16T01:33:54.999Z,-3.20
2023-02-16T01:34:05.006Z,-3.19
2023-02-16T01:34:15.017Z,-3.20
2023-02-16T01:34:25.000Z,-3.19
2023-02-16T01:34:35.006Z,-3.20
2023-02-16T01:34:45.013Z,-3.19
2023-02-16T01:34:55.000Z,-3.19
2023-02-16T01:35:05.011Z,-3.20
2023-02-16T01:35:15.038Z,-3.19
2023-02-16T01:35:25.023Z,-3.20
2023-02-16T01:35:35.045Z,-3.18
2023-02-16T01:35:45.017Z,-3.18
2023-02-16T01:35:55.008Z,-3.20
2023-02-16T01:36:05.015Z,-3.21
2023-02-16T01:36:15.014Z,-3.20
2023-02-16T01:36:25.009Z,-3.20
2023-02-16T01:36:35.015Z,-3.19
2023-02-16T01:36:45.012Z,-3.20
2023-02-16T01:36:55.024Z,-3.20
2023-02-16T01:37:05.014Z,-3.19
2023-02-16T01:37:15.021Z,-3.19
2023-02-16T01:37:25.017Z,-3.19
2023-02-16T01:37:35.014Z,-3.20
2023-02-16T01:37:45.018Z,-3.21
2023-02-16T01:37:55.030Z,-3.20
2023-02-16T01:38:05.077Z,-3.21
2023-02-16T01:38:17.062Z,-3.20
2023-02-16T01:38:25.026Z,-3.22
2023-02-16T01:38:35.012Z,-3.20
2023-02-16T01:38:45.015Z,-3.23
2023-02-16T01:38:55.038Z,-3.22
2023-02-16T01:39:05.017Z,-3.23
2023-02-16T01:39:15.027Z,-3.23
2023-02-16T01:39:25.023Z,-3.24
2023-02-16T01:39:35.033Z,-3.26
2023-02-16T01:39:45.028Z,-3.26
2023-02-16T01:39:55.037Z,-3.28
2023-02-16T01:40:05.029Z,-3.28
2023-02-16T01:40:15.059Z,-3.29
2023-02-16T01:40:25.029Z,-3.29
2023-02-16T01:40:35.052Z,-3.29
2023-02-16T01:40:45.041Z,-3.30
2023-02-16T01:40:55.032Z,-3.32
2023-02-16T01:41:05.419Z,-3.32
2023-02-16T01:41:15.035Z,-3.34
2023-02-16T01:41:25.034Z,-3.36
2023-02-16T01:41:35.034Z,-3.36
2023-02-16T01:41:45.032Z,-3.34
2023-02-16T01:41:55.041Z,-3.37
2023-02-16T01:42:05.043Z,-3.38
2023-02-16T01:42:15.042Z,-3.39
2023-02-16T01:42:25.038Z,-3.39
2023-02-16T01:42:35.045Z,-3.41
2023-02-16T01:42:45.043Z,-3.41
2023-02-16T01:42:55.052Z,-3.43
2023-02-16T01:43:05.052Z,-3.43
2023-02-16T01:43:15.051Z,-3.42
2023-02-16T01:43:25.046Z,-3.42
2023-02-16T01:43:35.051Z,-3.42
2023-02-16T01:43:45.052Z,-3.44
2023-02-16T01:43:55.050Z,-3.43
2023-02-16T01:44:05.047Z,-3.45
2023-02-16T01:44:15.056Z,-3.45
2023-02-16T01:44:25.059Z,-3.47
2023-02-16T01:44:35.058Z,-3.48
2023-02-16T01:44:45.051Z,-3.49
2023-02-16T01:44:55.059Z,-3.50
2023-02-16T01:45:05.054Z,-3.49
2023-02-16T01:45:15.087Z,-3.49
2023-02-16T01:45:25.040Z,-3.50
2023-02-16T01:45:35.062Z,-3.50
2023-02-16T01:45:45.060Z,-3.53
2023-02-16T01:45:55.063Z,-3.53
2023-02-16T01:46:05.088Z,-3.55
2023-02-16T01:46:15.127Z,-3.57
2023-02-16T01:46:25.102Z,-3.59
2023-02-16T01:46:35.101Z,-3.60
2023-02-16T01:46:45.079Z,-3.63
2023-02-16T01:46:55.144Z,-3.63
2023-02-16T01:47:05.065Z,-3.63
2023-02-16T01:47:15.070Z,-3.66
2023-02-16T01:47:25.071Z,-3.67
2023-02-16T01:47:35.078Z,-3.68
2023-02-16T01:47:45.076Z,-3.68
2023-02-16T01:47:55.074Z,-3.69
2023-02-16T01:48:05.069Z,-3.69
2023-02-16T01:48:15.070Z,-3.69
2023-02-16T01:48:25.073Z,-3.70
2023-02-16T01:48:35.070Z,-3.70
2023-02-16T01:48:45.077Z,-3.71
2023-02-16T01:48:55.084Z,-3.70
2023-02-16T01:49:05.080Z,-3.70
2023-02-16T01:49:15.078Z,-3.70
2023-02-16T01:49:25.079Z,-3.71
2023-02-16T01:49:35.084Z,-3.69
2023-02-16T01:49:45.082Z,-3.69
2023-02-16T01:49:55.082Z,-3.70
2023-02-16T01:50:05.091Z,-3.67
2023-02-16T01:50:15.094Z,-3.66
2023-02-16T01:50:25.083Z,-3.66
2023-02-16T01:50:35.095Z,-3.64
2023-02-16T01:50:45.086Z,-3.65
2023-02-16T01:50:55.091Z,-3.65
2023-02-16T01:51:05.258Z,-3.64
2023-02-16T01:51:15.089Z,-3.64
2023-02-16T01:51:25.094Z,-3.65
2023-02-16T01:51:35.094Z,-3.63
2023-02-16T01:51:45.085Z,-3.65
2023-02-16T01:51:55.092Z,-3.61
2023-02-16T01:52:05.097Z,-3.64
2023-02-16T01:52:15.094Z,-3.65
2023-02-16T01:52:25.103Z,-3.63
2023-02-16T01:52:35.108Z,-3.64
2023-02-16T01:52:45.103Z,-3.65
2023-02-16T01:52:55.093Z,-3.64
2023-02-16T01:53:05.126Z,-3.63
2023-02-16T01:53:15.277Z,-3.63
2023-02-16T01:53:25.106Z,-3.64
2023-02-16T01:53:35.100Z,-3.63
2023-02-16T01:53:45.104Z,-3.64
2023-02-16T01:53:55.104Z,-3.64
2023-02-16T01:54:05.104Z,-3.64
2023-02-16T01:54:15.109Z,-3.65
2023-02-16T01:54:25.109Z,-3.63
2023-02-16T01:54:35.103Z,-3.64
2023-02-16T01:54:45.104Z,-3.63
2023-02-16T01:54:55.116Z,-3.64
2023-02-16T01:55:05.121Z,-3.65
2023-02-16T01:55:15.123Z,-3.66
2023-02-16T01:55:25.128Z,-3.64
2023-02-16T01:55:35.117Z,-3.64
2023-02-16T01:55:45.111Z,-3.66
2023-02-16T01:55:55.124Z,-3.68
2023-02-16T01:56:05.125Z,-3.69
2023-02-16T01:56:15.118Z,-3.69
2023-02-16T01:56:25.110Z,-3.71
2023-02-16T01:56:35.117Z,-3.69
2023-02-16T01:56:45.120Z,-3.71
2023-02-16T01:56:55.113Z,-3.72
2023-02-16T01:57:05.226Z,-3.72
2023-02-16T01:57:15.145Z,-3.71
2023-02-16T01:57:25.119Z,-3.71
2023-02-16T01:57:35.121Z,-3.70
2023-02-16T01:57:45.160Z,-3.72
2023-02-16T01:57:55.118Z,-3.71
2023-02-16T01:58:05.130Z,-3.71
2023-02-16T01:58:15.137Z,-3.69
2023-02-16T01:58:25.124Z,-3.71
2023-02-16T01:58:35.125Z,-3.69
2023-02-16T01:58:45.125Z,-3.70
2023-02-16T01:58:55.132Z,-3.72
2023-02-16T01:59:05.125Z,-3.72
2023-02-16T01:59:15.138Z,-3.73
2023-02-16T01:59:25.132Z,-3.75
2023-02-16T01:59:35.134Z,-3.73
2023-02-16T01:59:45.141Z,-3.74
2023-02-16T01:59:55.143Z,-3.75
2023-02-16T02:00:05.224Z,-3.76
2023-02-16T02:00:15.157Z,-3.75
2023-02-16T02:00:25.144Z,-3.76
2023-02-16T02:00:35.132Z,-3.78
2023-02-16T02:00:45.134Z,-3.77
2023-02-16T02:00:55.133Z,-3.77
2023-02-16T02:01:05.555Z,-3.76
2023-02-16T02:01:15.170Z,-3.76
2023-02-16T02:01:25.228Z,-3.76
2023-02-16T02:01:35.154Z,-3.76
2023-02-16T02:01:45.211Z,-3.72
2023-02-16T02:01:55.177Z,-3.72
2023-02-16T02:02:05.152Z,-3.71
2023-02-16T02:02:15.156Z,-3.70
2023-02-16T02:02:25.164Z,-3.70
2023-02-16T02:02:35.182Z,-3.69
2023-02-16T02:02:45.177Z,-3.68
2023-02-16T02:02:55.189Z,-3.67
2023-02-16T02:03:05.230Z,-3.66
2023-02-16T02:03:15.143Z,-3.64
2023-02-16T02:03:25.153Z,-3.62
2023-02-16T02:03:35.163Z,-3.61
2023-02-16T02:03:45.149Z,-3.60
2023-02-16T02:03:55.150Z,-3.60
2023-02-16T02:04:05.153Z,-3.56
2023-02-16T02:04:15.155Z,-3.54
2023-02-16T02:04:25.158Z,-3.56
2023-02-16T02:04:35.157Z,-3.55
2023-02-16T02:04:45.150Z,-3.53
2023-02-16T02:04:55.156Z,-3.53
2023-02-16T02:05:05.153Z,-3.54
2023-02-16T02:05:15.169Z,-3.53
2023-02-16T02:05:25.163Z,-3.53
2023-02-16T02:05:35.226Z,-3.53
2023-02-16T02:05:45.155Z,-3.52
2023-02-16T02:05:55.154Z,-3.52
2023-02-16T02:06:05.159Z,-3.51
2023-02-16T02:06:15.169Z,-3.52
2023-02-16T02:06:25.160Z,-3.52
2023-02-16T02:06:35.161Z,-3.52
2023-02-16T02:06:45.170Z,-3.51
2023-02-16T02:06:55.169Z,-3.51
2023-02-16T02:07:05.168Z,-3.49
2023-02-16T02:07:15.170Z,-3.50
2023-02-16T02:07:25.168Z,-3.50
2023-02-16T02:07:35.161Z,-3.48
2023-02-16T02:07:45.169Z,-3.49
2023-02-16T02:07:55.170Z,-3.49
2023-02-16T02:08:05.164Z,-3.48
2023-02-16T02:08:15.170Z,-3.46
2023-02-16T02:08:25.175Z,-3.47
2023-02-16T02:08:35.169Z,-3.47
2023-02-16T02:08:45.162Z,-3.48